Time;durP1;ratioP1;P1;durP2;ratioP2;P2;SDS_P1;SDS_P2;PMS_P1;PMS_P2;Temp;Humidity;BMP_temperature;BMP_pressure;BME280_temperature;BME280_humidity;BME280_pressure;Samples;Min_cycle;Max_cycle;Signal;HPM_P1;HPM_P2
2023/03/12 00:04:45;;;;;;;10.17;4.77;;;3.90;85.00;;;;;;10375189;28;20226;-82
2023/03/12 00:09:47;;;;;;;6.20;4.43;;;3.90;84.70;;;;;;10393788;28;20247;-80
2023/03/12 00:14:49;;;;;;;6.20;4.50;;;3.90;84.20;;;;;;10373000;28;20275;-80
2023/03/12 00:19:53;;;;;;;6.43;4.20;;;3.80;84.30;;;;;;10371388;28;20215;-80
2023/03/12 00:24:56;;;;;;;8.10;4.67;;;3.80;85.50;;;;;;10352931;28;20303;-79
2023/03/12 00:29:58;;;;;;;4.83;4.20;;;3.80;84.40;;;;;;10356222;28;20218;-81
2023/03/12 00:35:02;;;;;;;4.37;3.97;;;3.80;84.70;;;;;;10367667;28;20331;-81
2023/03/12 00:40:08;;;;;;;6.90;4.43;;;3.90;83.80;;;;;;10367936;28;20212;-81
2023/03/12 00:45:14;;;;;;;8.20;4.67;;;3.80;84.80;;;;;;10387938;28;20235;-78
2023/03/12 00:50:18;;;;;;;4.23;3.83;;;3.80;84.60;;;;;;10361709;28;20227;-81
2023/03/12 00:55:20;;;;;;;5.67;4.30;;;3.70;83.90;;;;;;10374977;28;20687;-79
2023/03/12 01:00:22;;;;;;;6.80;5.37;;;3.70;83.70;;;;;;10376670;28;20200;-80
2023/03/12 01:05:26;;;;;;;4.00;3.70;;;3.70;84.00;;;;;;10356449;28;20219;-79
2023/03/12 01:10:28;;;;;;;4.67;4.23;;;3.60;83.50;;;;;;10390257;28;20221;-81
2023/03/12 01:15:30;;;;;;;4.20;3.80;;;3.70;84.40;;;;;;10388354;28;20215;-79
2023/03/12 01:20:33;;;;;;;4.40;3.87;;;3.60;85.50;;;;;;10393383;28;20200;-80
2023/03/12 01:25:36;;;;;;;7.07;5.00;;;3.70;85.40;;;;;;10375078;28;20294;-79
2023/03/12 01:30:38;;;;;;;8.07;4.37;;;3.80;85.70;;;;;;10375731;28;20248;-79
2023/03/12 01:35:42;;;;;;;5.50;3.43;;;3.80;85.20;;;;;;10375170;28;20217;-81
2023/03/12 01:40:44;;;;;;;7.00;5.00;;;3.90;84.70;;;;;;10358826;28;20246;-81
2023/03/12 01:46:19;;;;;;;7.53;4.40;;;3.90;86.30;;;;;;10375824;28;20228;-81
2023/03/12 01:51:26;;;;;;;4.90;3.63;;;3.90;85.20;;;;;;10376665;28;20307;-81
2023/03/12 01:56:32;;;;;;;6.93;4.20;;;3.90;85.00;;;;;;10374499;28;20217;-81
2023/03/12 02:01:35;;;;;;;7.00;4.33;;;3.90;85.40;;;;;;10370454;28;20200;-78
2023/03/12 02:06:43;;;;;;;5.97;4.40;;;4.00;85.30;;;;;;10357253;28;20280;-79
2023/03/12 02:11:45;;;;;;;4.27;3.93;;;4.10;85.80;;;;;;10374346;28;20235;-80
2023/03/12 02:16:47;;;;;;;5.33;3.70;;;4.10;85.40;;;;;;10374719;28;20219;-79
2023/03/12 02:21:51;;;;;;;6.23;4.33;;;4.20;85.10;;;;;;10358713;28;20226;-79
2023/03/12 02:26:55;;;;;;;4.17;3.77;;;4.20;87.10;;;;;;10382676;28;20235;-81
2023/03/12 02:32:00;;;;;;;6.23;4.20;;;4.30;86.90;;;;;;10396360;28;20676;-81
2023/03/12 02:37:05;;;;;;;6.73;4.90;;;4.30;85.40;;;;;;10379810;28;20657;-79
2023/03/12 02:42:09;;;;;;;4.67;4.13;;;4.30;85.80;;;;;;10372759;28;20197;-80
2023/03/12 02:47:12;;;;;;;4.70;4.30;;;4.30;84.80;;;;;;10366626;23;20229;-82
2023/03/12 02:52:14;;;;;;;6.57;4.17;;;4.30;85.20;;;;;;10315192;28;20329;-82
2023/03/12 02:57:17;;;;;;;5.90;4.83;;;4.30;86.10;;;;;;10355463;28;20218;-82
2023/03/12 03:02:20;;;;;;;5.63;4.73;;;4.30;86.10;;;;;;10377771;28;20240;-82
2023/03/12 03:07:22;;;;;;;5.13;4.30;;;4.30;85.70;;;;;;10377152;28;20236;-82
2023/03/12 03:12:26;;;;;;;7.50;5.60;;;4.30;86.80;;;;;;10360257;28;20224;-82
2023/03/12 03:17:29;;;;;;;6.93;4.90;;;4.30;85.90;;;;;;10354675;28;20652;-82
2023/03/12 03:22:31;;;;;;;6.43;5.33;;;4.20;85.50;;;;;;10372488;28;20206;-82
2023/03/12 03:27:42;;;;;;;8.17;5.30;;;4.20;86.20;;;;;;10358703;28;20595;-82
2023/03/12 03:32:48;;;;;;;5.40;4.90;;;4.20;84.90;;;;;;10377018;28;20215;-82
2023/03/12 03:37:51;;;;;;;9.90;5.47;;;4.20;86.60;;;;;;10360099;28;20476;-81
2023/03/12 03:42:54;;;;;;;5.93;5.43;;;4.20;88.20;;;;;;10391140;28;20631;-82
2023/03/12 03:47:56;;;;;;;8.43;5.23;;;4.30;88.00;;;;;;10359997;28;20237;-81
2023/03/12 03:52:59;;;;;;;9.33;5.67;;;4.40;87.00;;;;;;10358475;28;20237;-82
2023/03/12 03:58:03;;;;;;;8.50;5.50;;;4.60;86.10;;;;;;10375729;28;20202;-81
2023/03/12 04:03:05;;;;;;;9.80;6.07;;;4.60;86.60;;;;;;10374673;28;20281;-82
2023/03/12 04:08:07;;;;;;;7.87;7.00;;;4.70;86.60;;;;;;10374670;28;20198;-81
2023/03/12 04:13:11;;;;;;;7.03;6.33;;;4.80;86.90;;;;;;10365918;28;20230;-81
2023/03/12 04:18:14;;;;;;;8.03;6.67;;;4.80;88.70;;;;;;10381714;28;20244;-82
2023/03/12 04:23:17;;;;;;;9.60;7.30;;;4.90;87.80;;;;;;10365498;28;20218;-81
2023/03/12 04:28:20;;;;;;;9.70;8.03;;;5.10;88.40;;;;;;10366263;28;20624;-81
2023/03/12 04:33:23;;;;;;;10.03;8.17;;;5.20;88.40;;;;;;10366963;28;20225;-82
2023/03/12 04:38:27;;;;;;;9.10;7.83;;;5.30;88.20;;;;;;10365869;28;20200;-82
2023/03/12 04:43:32;;;;;;;9.17;8.23;;;5.30;88.40;;;;;;10384118;28;20222;-82
2023/03/12 04:48:35;;;;;;;8.80;7.80;;;5.40;88.70;;;;;;10382712;28;20205;-82
2023/03/12 04:53:39;;;;;;;9.40;7.50;;;5.50;88.00;;;;;;10383195;28;20279;-81
2023/03/12 04:58:43;;;;;;;8.30;7.50;;;5.50;88.40;;;;;;10364850;28;20631;-82
2023/03/12 05:03:46;;;;;;;8.20;7.27;;;5.60;88.20;;;;;;10364765;28;20248;-82
2023/03/12 05:08:48;;;;;;;9.80;7.03;;;5.60;87.10;;;;;;10364792;28;20223;-82
2023/03/12 05:13:52;;;;;;;10.10;6.83;;;5.60;86.80;;;;;;10374781;28;20244;-82
2023/03/12 05:18:55;;;;;;;26.47;16.17;;;5.60;87.30;;;;;;10366299;28;20201;-82
2023/03/12 05:23:59;;;;;;;11.07;8.07;;;5.60;89.00;;;;;;10381227;28;20222;-82
2023/03/12 05:29:05;;;;;;;10.50;7.23;;;5.60;88.90;;;;;;10382335;28;20621;-82
2023/03/12 05:34:10;;;;;;;7.47;6.70;;;5.70;87.90;;;;;;10399524;28;20227;-82
2023/03/12 05:39:16;;;;;;;11.23;8.33;;;5.70;89.60;;;;;;10381725;28;20206;-82
2023/03/12 05:44:23;;;;;;;8.17;7.37;;;5.80;90.20;;;;;;10384078;28;20227;-83
2023/03/12 05:49:29;;;;;;;9.30;7.63;;;5.80;90.50;;;;;;10382767;28;20216;-82
2023/03/12 05:54:32;;;;;;;7.33;6.63;;;5.80;90.50;;;;;;10382415;28;20222;-82
2023/03/12 05:59:36;;;;;;;7.23;6.57;;;5.90;90.80;;;;;;10399254;28;20259;-82
2023/03/12 06:04:38;;;;;;;7.57;6.80;;;5.90;91.00;;;;;;10400101;28;20219;-82
2023/03/12 06:09:41;;;;;;;9.10;8.20;;;5.90;91.60;;;;;;10383531;28;20602;-82
2023/03/12 06:20:30;;;;;;;7.30;6.70;;;5.80;93.50;;;;;;10328275;28;20207;-82
2023/03/12 06:31:25;;;;;;;8.13;7.30;;;5.60;95.40;;;;;;10374405;28;20213;-82
2023/03/12 06:36:27;;;;;;;9.90;8.90;;;5.60;96.00;;;;;;10401294;28;20220;-82
2023/03/12 06:41:29;;;;;;;9.13;8.17;;;5.60;96.90;;;;;;10384587;28;20194;-83
2023/03/12 06:46:33;;;;;;;8.03;7.33;;;5.70;96.90;;;;;;10404513;28;20229;-83
2023/03/12 06:51:35;;;;;;;8.40;7.60;;;5.80;97.00;;;;;;10401332;28;20217;-83
2023/03/12 06:56:38;;;;;;;8.87;7.97;;;5.90;97.70;;;;;;10380144;28;20226;-82
2023/03/12 07:01:41;;;;;;;8.40;7.50;;;6.00;97.80;;;;;;10399373;28;20195;-82
2023/03/12 07:06:49;;;;;;;9.00;8.10;;;6.10;97.80;;;;;;10396161;28;20241;-83
2023/03/12 07:11:51;;;;;;;10.13;9.23;;;6.20;97.80;;;;;;10377491;28;20721;-82
2023/03/12 07:16:55;;;;;;;13.63;10.57;;;6.30;98.20;;;;;;10375867;28;20241;-82
2023/03/12 07:22:11;;;;;;;8.87;7.83;;;6.30;98.60;;;;;;10392987;28;20187;-83
2023/03/12 07:27:13;;;;;;;8.90;7.00;;;6.20;99.20;;;;;;10376696;28;20222;-83
2023/03/12 07:32:17;;;;;;;8.50;7.73;;;6.20;98.00;;;;;;10393893;28;20216;-83
2023/03/12 07:37:19;;;;;;;10.80;6.63;;;6.10;98.60;;;;;;10392555;28;20247;-82
2023/03/12 07:42:26;;;;;;;7.00;6.30;;;5.90;98.20;;;;;;10377445;28;20220;-82
2023/03/12 07:47:33;;;;;;;9.00;7.43;;;5.80;97.10;;;;;;10402208;28;20207;-82
2023/03/12 07:52:35;;;;;;;11.20;10.10;;;5.70;98.00;;;;;;10401519;28;20275;-83
2023/03/12 07:57:42;;;;;;;9.27;7.83;;;5.70;98.10;;;;;;10400515;28;20195;-83
2023/03/12 08:02:49;;;;;;;8.50;7.70;;;5.80;98.80;;;;;;10401905;28;20226;-83
2023/03/12 08:14:04;;;;;;;8.43;7.63;;;6.20;98.00;;;;;;10375766;28;20249;-83
2023/03/12 08:25:36;;;;;;;8.00;7.40;;;6.80;99.10;;;;;;10280644;28;20223;-83
2023/03/12 08:30:38;;;;;;;8.30;7.50;;;7.00;98.90;;;;;;10345252;28;20223;-83
2023/03/12 08:42:32;;;;;;;9.30;7.60;;;7.20;98.50;;;;;;10228813;28;20247;-83
2023/03/12 08:47:49;;;;;;;8.47;7.87;;;7.30;98.50;;;;;;10473185;23;20241;-84
2023/03/12 08:52:51;;;;;;;9.27;8.37;;;7.40;99.10;;;;;;10424832;28;20240;-84
2023/03/12 08:57:55;;;;;;;9.33;8.33;;;7.50;99.50;;;;;;10409144;28;20631;-85
2023/03/12 09:02:57;;;;;;;9.03;7.60;;;7.70;99.60;;;;;;10428485;28;20202;-84
2023/03/12 09:07:59;;;;;;;10.17;7.17;;;7.80;99.30;;;;;;10413449;28;20211;-84
2023/03/12 09:13:04;;;;;;;8.60;7.90;;;7.90;99.70;;;;;;10425490;28;20291;-84
2023/03/12 09:18:07;;;;;;;9.17;8.27;;;7.90;99.90;;;;;;10411647;28;20202;-85
2023/03/12 09:23:11;;;;;;;10.40;9.50;;;8.00;99.90;;;;;;10410848;28;20218;-85
2023/03/12 09:28:16;;;;;;;9.83;8.93;;;8.10;99.90;;;;;;10404290;28;20292;-86
2023/03/12 09:33:21;;;;;;;7.43;6.77;;;8.20;99.90;;;;;;10418711;28;20244;-82
2023/03/12 09:38:23;;;;;;;10.40;9.50;;;8.30;99.90;;;;;;10422509;28;20622;-84
2023/03/12 09:43:36;;;;;;;9.70;9.00;;;8.40;99.90;;;;;;10419163;28;20277;-84
2023/03/12 09:48:45;;;;;;;9.57;8.67;;;8.50;99.90;;;;;;10402072;28;20203;-84
2023/03/12 09:53:51;;;;;;;8.93;8.13;;;8.60;99.90;;;;;;10401838;28;20230;-82
2023/03/12 09:58:55;;;;;;;9.47;8.67;;;8.70;99.90;;;;;;10417730;28;20211;-85
2023/03/12 10:04:15;;;;;;;9.67;8.97;;;8.90;99.90;;;;;;10417684;28;20215;-82
2023/03/12 10:09:59;;;;;;;10.20;9.20;;;9.10;99.90;;;;;;10419851;28;20390;-87
2023/03/12 10:15:15;;;;;;;11.17;10.07;;;9.30;99.90;;;;;;10420788;28;20581;-81
2023/03/12 10:20:50;;;;;;;16.50;14.80;;;9.50;99.90;;;;;;10419984;28;20206;-82
2023/03/12 10:25:58;;;;;;;8.03;7.30;;;9.70;99.90;;;;;;10388929;28;20229;-83
2023/03/12 10:31:05;;;;;;;4.20;3.90;;;9.80;99.90;;;;;;10400801;28;20221;-83
2023/03/12 10:36:16;;;;;;;4.00;3.80;;;10.10;99.90;;;;;;10418598;28;20239;-82
2023/03/12 10:41:22;;;;;;;3.90;3.60;;;10.30;99.90;;;;;;10415018;28;20317;-83
2023/03/12 10:46:42;;;;;;;3.80;3.33;;;10.50;99.90;;;;;;10421694;28;20231;-81
2023/03/12 10:51:55;;;;;;;3.50;3.30;;;10.70;99.90;;;;;;10431559;28;20218;-82
2023/03/12 10:56:59;;;;;;;3.60;3.40;;;10.80;99.90;;;;;;10372177;28;20693;-85
2023/03/12 11:02:21;;;;;;;5.10;3.80;;;10.80;99.90;;;;;;10358126;28;20345;-80
2023/03/12 11:07:27;;;;;;;3.50;3.30;;;10.80;99.90;;;;;;10373145;28;20644;-81
2023/03/12 11:12:30;;;;;;;4.03;3.73;;;10.90;99.90;;;;;;10405465;28;20216;-83
2023/03/12 11:17:35;;;;;;;3.60;3.30;;;10.90;99.90;;;;;;10413268;28;20264;-81
2023/03/12 11:22:37;;;;;;;3.50;3.30;;;11.00;99.90;;;;;;10406034;28;20237;-84
2023/03/12 11:27:47;;;;;;;3.30;3.10;;;11.20;99.90;;;;;;10415348;28;20225;-82
2023/03/12 11:32:52;;;;;;;3.87;3.60;;;11.40;99.90;;;;;;10400044;28;20218;-85
2023/03/12 11:38:03;;;;;;;3.73;3.43;;;11.60;99.90;;;;;;10414131;28;20209;-85
2023/03/12 11:43:21;;;;;;;3.30;3.00;;;11.70;99.90;;;;;;10391103;28;20214;-86
2023/03/12 11:48:28;;;;;;;3.73;2.70;;;11.90;99.90;;;;;;10405660;28;20216;-83
2023/03/12 11:53:43;;;;;;;1.93;1.83;;;12.10;99.90;;;;;;10412012;28;20260;-83
2023/03/12 11:58:57;;;;;;;2.47;2.37;;;12.20;99.90;;;;;;10417595;28;20206;-80
2023/03/12 12:04:32;;;;;;;4.33;2.63;;;12.30;99.90;;;;;;10413055;28;20255;-80
2023/03/12 12:09:40;;;;;;;3.63;2.30;;;12.40;99.90;;;;;;10413853;28;20209;-78
2023/03/12 12:14:57;;;;;;;7.30;6.70;;;12.60;99.90;;;;;;10368344;28;20224;-78
2023/03/12 12:20:17;;;;;;;3.10;2.20;;;12.70;99.90;;;;;;10390280;28;20205;-77
2023/03/12 12:25:42;;;;;;;2.60;2.40;;;12.80;99.90;;;;;;10402706;28;20549;-78
2023/03/12 12:30:57;;;;;;;2.73;2.53;;;12.80;99.90;;;;;;10416516;28;20231;-79
2023/03/12 12:36:08;;;;;;;3.23;2.40;;;12.80;99.90;;;;;;10415550;28;20232;-81
2023/03/12 12:41:15;;;;;;;3.90;2.63;;;12.80;99.90;;;;;;10417637;28;20183;-77
2023/03/12 12:46:20;;;;;;;4.07;2.50;;;12.80;99.90;;;;;;10429004;28;20230;-79
2023/03/12 12:51:31;;;;;;;2.90;2.17;;;12.80;99.90;;;;;;10419240;28;20202;-82
2023/03/12 12:56:41;;;;;;;5.17;3.07;;;12.80;99.90;;;;;;10401343;28;20220;-77
2023/03/12 13:01:44;;;;;;;3.13;2.60;;;12.80;99.90;;;;;;10429138;28;20208;-79
2023/03/12 13:07:02;;;;;;;2.20;2.10;;;12.80;99.90;;;;;;10417602;28;20223;-79
2023/03/12 13:12:14;;;;;;;4.00;2.33;;;12.70;99.90;;;;;;10414543;28;20320;-79
2023/03/12 13:17:31;;;;;;;3.43;2.80;;;12.60;99.90;;;;;;10394498;28;20347;-79
2023/03/12 13:22:51;;;;;;;4.23;2.87;;;12.40;99.90;;;;;;10411241;28;20225;-80
2023/03/12 13:27:58;;;;;;;3.90;2.60;;;12.40;99.90;;;;;;10404095;28;20309;-79
2023/03/12 13:33:12;;;;;;;7.83;3.50;;;12.20;99.90;;;;;;10410726;28;20222;-76
2023/03/12 13:38:36;;;;;;;5.77;3.33;;;12.20;99.90;;;;;;10418329;28;20222;-77
2023/03/12 13:43:55;;;;;;;2.70;2.50;;;12.20;99.90;;;;;;10422985;28;20225;-79
2023/03/12 13:49:03;;;;;;;4.10;3.03;;;12.30;99.90;;;;;;10411443;28;20201;-78
2023/03/12 13:54:13;;;;;;;4.40;2.90;;;12.30;99.90;;;;;;10420644;28;20697;-78
2023/03/12 13:59:17;;;;;;;5.97;4.47;;;12.30;99.90;;;;;;10420518;28;20474;-77
2023/03/12 14:04:22;;;;;;;5.60;2.67;;;12.30;99.90;;;;;;10416970;28;20226;-79
2023/03/12 14:09:33;;;;;;;3.70;2.70;;;12.40;99.90;;;;;;10405969;28;20613;-80
2023/03/12 14:14:54;;;;;;;4.53;3.50;;;12.40;99.90;;;;;;10426455;28;20229;-80
2023/03/12 14:20:01;;;;;;;4.90;3.07;;;12.50;99.90;;;;;;10416257;28;20669;-80
2023/03/12 14:25:12;;;;;;;2.40;2.20;;;12.60;99.90;;;;;;10431561;28;20207;-79
2023/03/12 14:30:22;;;;;;;3.30;2.87;;;12.60;99.90;;;;;;10426360;28;20191;-80
2023/03/12 14:35:28;;;;;;;5.60;2.87;;;12.50;99.90;;;;;;10424892;28;20221;-80
2023/03/12 14:40:38;;;;;;;5.00;2.90;;;12.40;99.90;;;;;;10420009;28;20209;-78
2023/03/12 14:45:40;;;;;;;4.40;2.87;;;12.40;99.90;;;;;;10440642;22;20226;-79
2023/03/12 14:50:42;;;;;;;6.20;2.83;;;12.40;99.90;;;;;;10427220;28;20249;-77
2023/03/12 14:55:46;;;;;;;2.40;2.20;;;12.40;99.90;;;;;;10392889;28;20230;-77
2023/03/12 15:00:56;;;;;;;4.30;2.17;;;12.40;99.90;;;;;;10415253;28;20222;-77
2023/03/12 15:05:59;;;;;;;4.73;3.10;;;12.30;99.90;;;;;;10408629;28;20234;-77
2023/03/12 15:11:03;;;;;;;4.27;2.40;;;12.30;99.90;;;;;;10410513;28;20222;-77
2023/03/12 15:16:06;;;;;;;5.97;2.70;;;12.40;99.90;;;;;;10414013;28;20229;-78
2023/03/12 15:21:08;;;;;;;3.80;2.60;;;12.30;99.90;;;;;;10431569;28;20198;-78
2023/03/12 15:26:15;;;;;;;3.30;2.70;;;12.20;99.90;;;;;;10414881;28;20215;-79
2023/03/12 15:31:17;;;;;;;3.10;2.50;;;12.20;99.90;;;;;;10401573;28;20281;-78
2023/03/12 15:36:27;;;;;;;4.00;3.00;;;12.20;99.90;;;;;;10404643;28;20301;-77
2023/03/12 15:41:42;;;;;;;3.90;3.00;;;12.30;99.70;;;;;;10408586;28;20289;-78
2023/03/12 15:46:46;;;;;;;4.40;3.07;;;12.40;99.80;;;;;;10411041;28;20264;-78
2023/03/12 15:52:03;;;;;;;6.50;3.90;;;12.40;99.90;;;;;;10394065;28;20245;-78
2023/03/12 15:57:22;;;;;;;5.40;3.40;;;12.40;99.20;;;;;;10409519;28;20218;-78
2023/03/12 16:02:36;;;;;;;5.57;3.43;;;12.40;99.20;;;;;;10413447;28;20703;-78
2023/03/12 16:07:38;;;;;;;8.50;3.60;;;12.30;99.20;;;;;;10418665;28;20222;-80
2023/03/12 16:12:43;;;;;;;7.70;3.70;;;12.30;99.00;;;;;;10424397;28;20555;-80
2023/03/12 16:17:45;;;;;;;4.90;3.20;;;12.30;98.80;;;;;;10422845;28;20226;-80
2023/03/12 16:22:47;;;;;;;6.37;5.00;;;12.30;99.30;;;;;;10406408;28;20201;-80
2023/03/12 16:27:53;;;;;;;7.00;4.17;;;12.30;99.90;;;;;;10423356;28;20223;-80
2023/03/12 16:32:58;;;;;;;4.90;2.90;;;12.30;98.90;;;;;;10406059;28;20242;-80
2023/03/12 16:38:01;;;;;;;9.67;3.77;;;12.20;98.90;;;;;;10424432;28;20218;-80
2023/03/12 16:43:07;;;;;;;6.10;3.60;;;12.20;98.90;;;;;;10430816;28;20222;-79
2023/03/12 16:48:14;;;;;;;13.27;4.90;;;12.10;99.00;;;;;;10421591;28;20294;-79
2023/03/12 16:53:17;;;;;;;4.57;3.20;;;12.10;99.00;;;;;;10423616;28;20214;-80
2023/03/12 16:58:23;;;;;;;8.30;6.60;;;12.00;99.20;;;;;;10423538;28;20233;-80
2023/03/12 17:03:31;;;;;;;10.13;6.10;;;11.90;99.90;;;;;;10425087;28;20234;-79
2023/03/12 17:08:34;;;;;;;9.00;6.87;;;11.90;99.90;;;;;;10424034;28;20194;-79
2023/03/12 17:13:38;;;;;;;10.00;5.83;;;11.80;99.90;;;;;;10423470;28;20222;-79
2023/03/12 17:18:40;;;;;;;12.83;6.30;;;11.80;99.30;;;;;;10427955;28;20203;-79
2023/03/12 17:23:43;;;;;;;7.33;4.00;;;11.70;99.70;;;;;;10428161;28;20218;-79
2023/03/12 17:28:47;;;;;;;8.90;4.60;;;11.60;99.50;;;;;;10428537;28;20250;-79
2023/03/12 17:33:49;;;;;;;7.00;4.43;;;11.60;99.60;;;;;;10425084;28;20222;-79
2023/03/12 17:38:51;;;;;;;11.20;4.73;;;11.60;99.50;;;;;;10423231;28;20311;-79
2023/03/12 17:43:57;;;;;;;4.50;3.70;;;11.50;99.10;;;;;;10422954;28;20242;-79
2023/03/12 17:49:00;;;;;;;9.17;4.47;;;11.50;98.80;;;;;;10422080;28;20226;-79
2023/03/12 17:54:02;;;;;;;6.63;4.27;;;11.50;99.20;;;;;;10421302;28;20257;-79
2023/03/12 17:59:05;;;;;;;11.67;4.37;;;11.30;99.00;;;;;;10420173;28;20257;-79
2023/03/12 18:04:07;;;;;;;7.50;3.90;;;11.20;99.10;;;;;;10422599;28;20211;-79
2023/03/12 18:09:09;;;;;;;9.80;4.57;;;11.10;99.00;;;;;;10420423;28;20202;-79
2023/03/12 18:14:13;;;;;;;6.60;4.03;;;11.00;99.10;;;;;;10421238;28;20230;-79
2023/03/12 18:19:15;;;;;;;6.03;3.67;;;10.90;99.10;;;;;;10416853;28;20190;-79
2023/03/12 18:24:17;;;;;;;6.87;5.53;;;10.90;99.30;;;;;;10415350;28;20237;-79
2023/03/12 18:29:21;;;;;;;12.33;8.33;;;10.90;99.20;;;;;;10415585;28;20197;-78
2023/03/12 18:34:23;;;;;;;14.43;6.97;;;10.80;99.50;;;;;;10421004;28;20624;-81
2023/03/12 18:39:25;;;;;;;10.90;5.23;;;10.70;99.90;;;;;;10421679;28;20254;-80
2023/03/12 18:44:29;;;;;;;10.20;7.37;;;10.80;99.80;;;;;;10398558;28;20253;-78
2023/03/12 18:49:32;;;;;;;11.90;4.67;;;10.80;99.70;;;;;;10417872;28;20215;-79
2023/03/12 18:54:34;;;;;;;10.77;6.90;;;10.80;99.70;;;;;;10411033;28;20796;-80
2023/03/12 18:59:37;;;;;;;12.03;9.87;;;10.80;99.90;;;;;;10401841;28;20230;-80
2023/03/12 19:04:39;;;;;;;15.20;12.80;;;10.80;99.70;;;;;;10417064;28;20234;-80
2023/03/12 19:09:41;;;;;;;21.50;15.77;;;10.70;99.80;;;;;;10425325;28;20206;-77
2023/03/12 19:14:45;;;;;;;18.57;15.90;;;10.60;99.90;;;;;;10423416;28;20237;-79
2023/03/12 19:19:47;;;;;;;14.50;11.00;;;10.60;99.90;;;;;;10432928;28;20204;-77
2023/03/12 19:24:49;;;;;;;8.50;5.50;;;10.70;99.80;;;;;;10414844;28;20218;-78
2023/03/12 19:29:52;;;;;;;11.80;5.63;;;10.60;99.80;;;;;;10413712;28;20225;-78
2023/03/12 19:34:54;;;;;;;11.90;5.43;;;10.50;99.70;;;;;;10417543;28;20773;-81
2023/03/12 19:39:56;;;;;;;9.10;5.53;;;10.40;99.90;;;;;;10418036;28;20198;-80
2023/03/12 19:45:00;;;;;;;12.07;10.20;;;10.40;99.60;;;;;;10415830;28;20295;-79
2023/03/12 19:50:02;;;;;;;30.60;27.33;;;10.30;99.50;;;;;;10398522;28;20547;-78
2023/03/12 19:55:04;;;;;;;11.27;8.07;;;10.20;99.90;;;;;;10396857;28;20311;-78
2023/03/12 20:00:11;;;;;;;11.30;5.70;;;10.20;99.70;;;;;;10422510;28;20290;-78
2023/03/12 20:05:13;;;;;;;7.50;3.90;;;10.10;99.90;;;;;;10411448;28;20218;-79
2023/03/12 20:10:16;;;;;;;6.17;4.40;;;10.00;99.90;;;;;;10414530;28;20284;-80
2023/03/12 20:15:19;;;;;;;6.33;4.40;;;10.00;99.90;;;;;;10412118;28;20225;-79
2023/03/12 20:20:21;;;;;;;7.53;4.70;;;10.00;99.90;;;;;;10412780;28;20202;-78
2023/03/12 20:25:23;;;;;;;8.93;4.63;;;10.00;99.80;;;;;;10408768;28;20676;-79
2023/03/12 20:30:27;;;;;;;9.27;4.50;;;10.00;99.80;;;;;;10401952;28;20207;-80
2023/03/12 20:35:29;;;;;;;8.70;3.70;;;10.00;99.70;;;;;;10405714;28;20217;-76
2023/03/12 20:40:31;;;;;;;10.20;6.00;;;9.90;99.90;;;;;;10399018;28;20645;-77
2023/03/12 20:45:34;;;;;;;9.60;5.37;;;9.90;99.90;;;;;;10396416;28;20240;-77
2023/03/12 20:50:38;;;;;;;6.27;4.27;;;9.80;99.90;;;;;;10410768;28;20237;-76
2023/03/12 20:55:40;;;;;;;6.33;4.60;;;9.80;99.90;;;;;;10411890;28;20225;-77
2023/03/12 21:00:43;;;;;;;14.07;6.33;;;9.80;99.90;;;;;;10413103;28;20565;-77
2023/03/12 21:05:53;;;;;;;8.67;6.00;;;9.70;99.90;;;;;;10411986;28;20315;-78
2023/03/12 21:10:58;;;;;;;11.30;7.90;;;9.70;99.90;;;;;;10408553;28;20245;-77
2023/03/12 21:16:04;;;;;;;9.90;5.10;;;9.70;99.90;;;;;;10428163;28;20253;-79
2023/03/12 21:21:08;;;;;;;6.23;4.77;;;9.60;99.90;;;;;;10432698;28;20199;-78
2023/03/12 21:26:11;;;;;;;8.10;4.30;;;9.60;99.90;;;;;;10425090;28;20782;-80
2023/03/12 21:31:16;;;;;;;8.07;4.90;;;9.70;99.90;;;;;;10436496;28;20202;-77
2023/03/12 21:36:18;;;;;;;10.57;5.57;;;9.70;99.90;;;;;;10437159;28;20648;-77
2023/03/12 21:41:21;;;;;;;8.20;4.60;;;9.70;99.90;;;;;;10431427;28;20229;-78
2023/03/12 21:46:26;;;;;;;9.90;4.80;;;9.70;99.90;;;;;;10424938;28;20251;-79
2023/03/12 21:51:31;;;;;;;9.40;4.73;;;9.70;99.90;;;;;;10429512;28;20200;-80
2023/03/12 21:56:33;;;;;;;8.90;5.20;;;9.70;99.90;;;;;;10412313;28;20226;-79
2023/03/12 22:01:36;;;;;;;9.20;5.07;;;9.60;99.90;;;;;;10426471;28;20685;-78
2023/03/12 22:06:38;;;;;;;10.33;5.50;;;9.60;99.90;;;;;;10422266;28;20670;-81
2023/03/12 22:11:40;;;;;;;9.43;4.90;;;9.50;99.90;;;;;;10432982;28;20717;-81
2023/03/12 22:16:44;;;;;;;10.10;5.10;;;9.40;99.90;;;;;;10432060;28;20230;-79
2023/03/12 22:21:46;;;;;;;12.20;5.60;;;9.30;99.90;;;;;;10442107;28;20300;-79
2023/03/12 22:26:48;;;;;;;10.43;5.77;;;9.30;99.90;;;;;;10424573;28;20247;-79
2023/03/12 22:31:51;;;;;;;11.20;6.20;;;9.30;99.90;;;;;;10402829;28;20219;-77
2023/03/12 22:36:54;;;;;;;7.30;5.00;;;9.30;99.90;;;;;;10401459;28;20225;-80
2023/03/12 22:41:56;;;;;;;9.30;5.40;;;9.40;99.90;;;;;;10420732;28;20199;-80
2023/03/12 22:46:59;;;;;;;9.67;6.00;;;9.40;99.90;;;;;;10400847;28;20267;-77
2023/03/12 22:52:01;;;;;;;32.60;22.20;;;9.40;99.90;;;;;;10414725;28;20295;-76
2023/03/12 22:57:03;;;;;;;23.57;14.47;;;9.30;99.90;;;;;;10417154;28;20654;-80
2023/03/12 23:02:07;;;;;;;23.87;14.60;;;9.30;99.90;;;;;;10417259;28;20201;-81
2023/03/12 23:07:09;;;;;;;72.63;43.90;;;9.40;99.90;;;;;;10419079;28;20623;-80
2023/03/12 23:12:11;;;;;;;8.60;5.30;;;9.40;99.90;;;;;;10418640;28;20283;-80
2023/03/12 23:17:15;;;;;;;8.63;4.70;;;9.40;99.90;;;;;;10417752;28;20248;-79
2023/03/12 23:22:17;;;;;;;12.50;5.47;;;9.40;99.90;;;;;;10418637;28;20263;-77
2023/03/12 23:27:19;;;;;;;12.20;7.10;;;9.40;99.90;;;;;;10412434;28;20219;-77
2023/03/12 23:32:23;;;;;;;11.70;5.30;;;9.20;99.90;;;;;;10411919;28;20198;-77
2023/03/12 23:37:25;;;;;;;9.40;5.20;;;9.10;99.90;;;;;;10410759;28;20224;-78
2023/03/12 23:42:27;;;;;;;10.83;4.63;;;9.00;99.90;;;;;;10411079;28;20228;-77
2023/03/12 23:47:34;;;;;;;7.47;4.77;;;8.90;99.90;;;;;;10411623;28;20225;-77
2023/03/12 23:52:36;;;;;;;9.83;5.10;;;8.80;99.90;;;;;;10396544;28;20202;-78
2023/03/12 23:57:38;;;;;;;10.80;5.40;;;8.70;99.90;;;;;;10412611;28;20224;-77
